Naniwa Maru No.21 — JG5648 — position and weather

sailwx.info

Track history (hours):
 
Tides and Currents Weather Stations Pressure Air Temp Water Temp Dewpoint Dewpoint Depression Visibility Wind Speed Wind Dir Waves Ship Positions

Naniwa Maru No.21

Last reported at 2015-Jul-03 21:34 UTC. Time now 2015-Jul-06 02:49 UTC.
Position N 33°37' E 130°23'.

Length 71 m; draft 5.2 m.

Type: Tanker. MMSI: 431301595.

Date/timePositionNaut miles runAvg speedWind from/ knotsBaromVisibWave heightAir tempDewpointWater temp
2015-Jul-03 21:34N 33°37' E 130°23'2 2.0
2015-Jul-03 20:30N 33°37' E 130°21'0 0.0
2015-Jul-03 19:33N 33°37' E 130°21'0 0.1
2015-Jul-03 18:33N 33°37' E 130°21'0 0.1
2015-Jul-03 17:33N 33°37' E 130°21'0 0.0
2015-Jul-03 15:24N 33°37' E 130°21'6 7.3
2015-Jul-03 14:33N 33°42' E 130°16'243 8.6
2015-Jul-02 10:22N 34°07' E 135°07'0 0.0
2015-Jul-02 07:27N 34°07' E 135°07'0 0.0
2015-Jul-02 06:33N 34°07' E 135°07'0 0.0
2015-Jul-02 05:15N 34°07' E 135°07'1 0.9
2015-Jul-02 04:18N 34°08' E 135°07'24311.2
2015-Jul-01 06:33N 33°41' E 130°16'7 7.1
2015-Jul-01 05:31N 33°36' E 130°23'0 0.0
2015-Jul-01 04:31N 33°36' E 130°23'0 0.0
2015-Jul-01 03:32N 33°36' E 130°23'0 0.0
2015-Jul-01 02:23N 33°36' E 130°23'1 0.6
2015-Jul-01 01:29N 33°37' E 130°23'2 1.9
2015-Jul-01 00:31N 33°37' E 130°21'0 0.0
2015-Jun-30 23:29N 33°37' E 130°21'0 0.0
2015-Jun-30 22:08N 33°37' E 130°21'0 0.0
2015-Jun-30 21:32N 33°37' E 130°21'0 0.0
2015-Jun-30 19:17N 33°37' E 130°21'0 0.0
2015-Jun-30 18:17N 33°37' E 130°21'0 0.1
2015-Jun-30 17:29N 33°38' E 130°21'0 0.0
2015-Jun-30 15:26N 33°37' E 130°21'0 0.0
2015-Jun-30 14:11N 33°38' E 130°21'0 0.0
2015-Jun-30 13:26N 33°37' E 130°21'0 0.0
2015-Jun-30 12:23N 33°38' E 130°21'0 0.0
2015-Jun-30 11:11N 33°38' E 130°21'0 0.0
2015-Jun-30 10:23N 33°38' E 130°21'0 0.0
2015-Jun-30 09:26N 33°38' E 130°21'0 0.0
2015-Jun-30 08:32N 33°37' E 130°21'0 0.0
2015-Jun-30 07:32N 33°37' E 130°21'0 0.0
2015-Jun-30 06:32N 33°37' E 130°21'0 0.0
2015-Jun-30 05:26N 33°37' E 130°21'0 0.0
2015-Jun-30 04:29N 33°37' E 130°21'0 0.1
2015-Jun-30 03:32N 33°37' E 130°21'0 0.0
2015-Jun-30 02:05N 33°37' E 130°21'0 0.0
2015-Jun-30 01:14N 33°38' E 130°21'0 0.0
2015-Jun-30 00:32N 33°38' E 130°21'0 0.0
2015-Jun-29 23:32N 33°38' E 130°21'0 0.0
2015-Jun-29 22:26N 33°37' E 130°21'0 0.1
2015-Jun-29 21:32N 33°37' E 130°21'0 0.0
2015-Jun-29 20:26N 33°37' E 130°21'0 0.0
2015-Jun-29 19:32N 33°37' E 130°21'7 7.2
2015-Jun-29 18:32N 33°44' E 130°16'240 6.8
2015-Jun-28 07:29N 34°38' E 134°59'1313.7
2015-Jun-28 06:33N 34°34' E 135°14'10 7.1
2015-Jun-28 05:10N 34°33' E 135°26'1 0.2
2015-Jun-27 21:13N 34°33' E 135°24'5 6.7
2015-Jun-27 20:28N 34°33' E 135°18'0 0.1
2015-Jun-27 19:28N 34°33' E 135°18'0 0.0
2015-Jun-27 18:28N 34°33' E 135°18'0 0.0
2015-Jun-27 17:22N 34°33' E 135°18'3 3.5
2015-Jun-27 16:34N 34°33' E 135°15'  
Track history (hours):
 
Tides and Currents Weather Stations Pressure Air Temp Water Temp Dewpoint Dewpoint Depression Visibility Wind Speed Wind Dir Waves Ship Positions

Naniwa Maru No.21

Last reported at 2015-Jul-03 21:34 UTC. Time now 2015-Jul-06 02:49 UTC.
Position N 33°37' E 130°23'.

Length 71 m; draft 5.2 m.

Type: Tanker. MMSI: 431301595.

Date/timePositionNaut miles runAvg speedWind from/ knotsBaromVisibWave heightAir tempDewpointWater temp
2015-Jul-03 21:34N 33°37' E 130°23'2 2.0
2015-Jul-03 20:30N 33°37' E 130°21'0 0.0
2015-Jul-03 19:33N 33°37' E 130°21'0 0.1
2015-Jul-03 18:33N 33°37' E 130°21'0 0.1
2015-Jul-03 17:33N 33°37' E 130°21'0 0.0
2015-Jul-03 15:24N 33°37' E 130°21'6 7.3
2015-Jul-03 14:33N 33°42' E 130°16'243 8.6
2015-Jul-02 10:22N 34°07' E 135°07'0 0.0
2015-Jul-02 07:27N 34°07' E 135°07'0 0.0
2015-Jul-02 06:33N 34°07' E 135°07'0 0.0
2015-Jul-02 05:15N 34°07' E 135°07'1 0.9
2015-Jul-02 04:18N 34°08' E 135°07'24311.2
2015-Jul-01 06:33N 33°41' E 130°16'7 7.1
2015-Jul-01 05:31N 33°36' E 130°23'0 0.0
2015-Jul-01 04:31N 33°36' E 130°23'0 0.0
2015-Jul-01 03:32N 33°36' E 130°23'0 0.0
2015-Jul-01 02:23N 33°36' E 130°23'1 0.6
2015-Jul-01 01:29N 33°37' E 130°23'2 1.9
2015-Jul-01 00:31N 33°37' E 130°21'0 0.0
2015-Jun-30 23:29N 33°37' E 130°21'0 0.0
2015-Jun-30 22:08N 33°37' E 130°21'0 0.0
2015-Jun-30 21:32N 33°37' E 130°21'0 0.0
2015-Jun-30 19:17N 33°37' E 130°21'0 0.0
2015-Jun-30 18:17N 33°37' E 130°21'0 0.1
2015-Jun-30 17:29N 33°38' E 130°21'0 0.0
2015-Jun-30 15:26N 33°37' E 130°21'0 0.0
2015-Jun-30 14:11N 33°38' E 130°21'0 0.0
2015-Jun-30 13:26N 33°37' E 130°21'0 0.0
2015-Jun-30 12:23N 33°38' E 130°21'0 0.0
2015-Jun-30 11:11N 33°38' E 130°21'0 0.0
2015-Jun-30 10:23N 33°38' E 130°21'0 0.0
2015-Jun-30 09:26N 33°38' E 130°21'0 0.0
2015-Jun-30 08:32N 33°37' E 130°21'0 0.0
2015-Jun-30 07:32N 33°37' E 130°21'0 0.0
2015-Jun-30 06:32N 33°37' E 130°21'0 0.0
2015-Jun-30 05:26N 33°37' E 130°21'0 0.0
2015-Jun-30 04:29N 33°37' E 130°21'0 0.1
2015-Jun-30 03:32N 33°37' E 130°21'0 0.0
2015-Jun-30 02:05N 33°37' E 130°21'0 0.0
2015-Jun-30 01:14N 33°38' E 130°21'0 0.0
2015-Jun-30 00:32N 33°38' E 130°21'0 0.0
2015-Jun-29 23:32N 33°38' E 130°21'0 0.0
2015-Jun-29 22:26N 33°37' E 130°21'0 0.1
2015-Jun-29 21:32N 33°37' E 130°21'0 0.0
2015-Jun-29 20:26N 33°37' E 130°21'0 0.0
2015-Jun-29 19:32N 33°37' E 130°21'7 7.2
2015-Jun-29 18:32N 33°44' E 130°16'240 6.8
2015-Jun-28 07:29N 34°38' E 134°59'1313.7
2015-Jun-28 06:33N 34°34' E 135°14'10 7.1
2015-Jun-28 05:10N 34°33' E 135°26'1 0.2
2015-Jun-27 21:13N 34°33' E 135°24'5 6.7
2015-Jun-27 20:28N 34°33' E 135°18'0 0.1
2015-Jun-27 19:28N 34°33' E 135°18'0 0.0
2015-Jun-27 18:28N 34°33' E 135°18'0 0.0
2015-Jun-27 17:22N 34°33' E 135°18'3 3.5
2015-Jun-27 16:34N 34°33' E 135°15'  

Dump ship's entire track history